createdAt,value
2022-10-27T00:01:46.192Z,4.82
2022-10-27T00:04:12.879Z,2.22
2022-10-27T00:06:39.534Z,6.85
2022-10-27T00:09:06.170Z,4.13
2022-10-27T00:11:32.796Z,7.32
2022-10-27T00:13:59.730Z,5.07
2022-10-27T00:18:51.777Z,3.58
2022-10-27T00:21:19.476Z,2.58
2022-10-27T00:26:14.729Z,4.05
2022-10-27T00:28:41.592Z,5.32
2022-10-27T00:33:37.704Z,7.88
2022-10-27T00:36:08.237Z,3.03
2022-10-27T00:41:01.486Z,5.35
2022-10-27T00:43:29.921Z,8.63
2022-10-27T00:48:25.733Z,4.18
2022-10-27T00:50:52.425Z,3.13
2022-10-27T00:55:45.216Z,4.28
2022-10-27T00:58:14.765Z,6.63
2022-10-27T01:05:35.247Z,7.13
2022-10-27T01:08:03.394Z,4.47
2022-10-27T01:10:30.311Z,3.03
2022-10-27T01:12:57.368Z,5.57
2022-10-27T01:18:06.582Z,6.28
2022-10-27T01:20:42.915Z,4.00
2022-10-27T01:25:39.815Z,5.53
2022-10-27T01:31:09.331Z,3.97
2022-10-27T01:33:43.107Z,3.57
2022-10-27T01:36:21.057Z,5.18
2022-10-27T01:41:23.381Z,3.15
2022-10-27T01:43:52.532Z,7.43
2022-10-27T01:46:19.582Z,2.90
2022-10-27T01:48:47.100Z,3.38
2022-10-27T01:51:14.397Z,3.33
2022-10-27T01:53:44.298Z,4.78
2022-10-27T01:56:10.858Z,3.15
2022-10-27T01:58:57.936Z,5.35
2022-10-27T02:01:43.359Z,5.03
2022-10-27T02:11:52.650Z,4.15
2022-10-27T02:14:20.376Z,8.00
2022-10-27T02:16:54.028Z,5.60
2022-10-27T02:19:20.733Z,3.22
2022-10-27T02:21:48.467Z,4.13
2022-10-27T02:24:15.624Z,3.58
2022-10-27T02:26:42.204Z,3.88
2022-10-27T02:29:11.676Z,8.57
2022-10-27T02:31:40.861Z,6.80
2022-10-27T02:34:07.932Z,3.92
2022-10-27T02:36:35.811Z,4.30
2022-10-27T02:39:02.473Z,5.13
2022-10-27T02:41:29.100Z,2.92
2022-10-27T02:43:55.663Z,4.97
2022-10-27T02:48:47.675Z,3.55
2022-10-27T02:51:14.338Z,5.18
2022-10-27T02:56:07.485Z,3.65
2022-10-27T02:58:34.152Z,4.07
2022-10-27T03:01:01.001Z,3.58
2022-10-27T03:03:27.754Z,4.60
2022-10-27T03:05:54.356Z,4.13
2022-10-27T03:10:46.470Z,7.60
2022-10-27T03:13:13.111Z,4.63
2022-10-27T03:15:39.741Z,4.20
2022-10-27T03:18:06.404Z,4.25
2022-10-27T03:20:33.002Z,3.60
2022-10-27T03:22:59.663Z,4.32
2022-10-27T03:25:26.316Z,6.65
2022-10-27T03:27:52.878Z,4.70
2022-10-27T03:32:46.024Z,5.55
2022-10-27T03:35:12.660Z,5.13
2022-10-27T03:37:39.312Z,5.20
2022-10-27T03:40:06.297Z,6.28
2022-10-27T03:42:32.884Z,4.45
2022-10-27T03:44:59.543Z,3.85
2022-10-27T03:47:26.513Z,6.18
2022-10-27T03:49:53.120Z,4.40
2022-10-27T03:52:21.795Z,3.30
2022-10-27T03:54:48.539Z,4.03
2022-10-27T03:57:15.158Z,6.10
2022-10-27T04:02:07.588Z,6.07
2022-10-27T04:04:34.557Z,3.95
2022-10-27T04:09:26.666Z,3.25
2022-10-27T04:11:53.400Z,5.10
2022-10-27T04:16:51.359Z,4.32
2022-10-27T04:19:18.731Z,4.22
2022-10-27T04:21:45.595Z,4.57
2022-10-27T04:24:12.634Z,5.65
2022-10-27T04:26:39.587Z,6.65
2022-10-27T04:29:06.312Z,4.60
2022-10-27T04:31:33.074Z,5.07
2022-10-27T04:33:59.782Z,6.03
2022-10-27T04:38:52.206Z,3.78
2022-10-27T04:41:18.871Z,2.60
2022-10-27T04:43:48.693Z,5.53
2022-10-27T04:46:15.400Z,3.95
2022-10-27T04:48:41.995Z,5.95
2022-10-27T04:51:08.608Z,4.38
2022-10-27T04:53:35.287Z,5.47
2022-10-27T04:56:01.850Z,7.70
2022-10-27T05:03:20.241Z,5.47
2022-10-27T05:08:13.009Z,6.55
2022-10-27T05:10:40.049Z,4.53
2022-10-27T05:15:32.611Z,5.55
2022-10-27T05:17:59.432Z,5.63
2022-10-27T05:20:26.299Z,7.50
2022-10-27T05:22:53.247Z,5.95
2022-10-27T05:25:19.873Z,9.88
2022-10-27T05:27:46.762Z,6.93
2022-10-27T05:30:14.803Z,10.45
2022-10-27T05:32:44.817Z,15.70
2022-10-27T05:35:13.837Z,19.42
2022-10-27T05:54:58.928Z,12.60
2022-10-27T05:57:25.580Z,12.98
2022-10-27T05:59:52.196Z,11.27
2022-10-27T06:07:09.907Z,9.98
2022-10-27T06:09:36.622Z,9.13
2022-10-27T06:12:03.438Z,8.45
2022-10-27T06:14:30.679Z,9.68
2022-10-27T06:16:57.657Z,11.13
2022-10-27T06:19:24.280Z,10.23
2022-10-27T06:21:50.861Z,15.75
2022-10-27T06:24:17.459Z,17.45
2022-10-27T06:26:44.105Z,9.60
2022-10-27T06:29:10.695Z,14.13
2022-10-27T06:36:29.200Z,9.80
2022-10-27T06:38:55.897Z,10.63
2022-10-27T06:43:47.956Z,11.85
2022-10-27T06:46:14.595Z,10.70
2022-10-27T06:51:06.801Z,11.18
2022-10-27T06:53:33.448Z,10.63
2022-10-27T06:56:04.814Z,9.63
2022-10-27T07:01:00.412Z,12.25
2022-10-27T07:03:28.507Z,18.80
2022-10-27T07:13:11.766Z,12.00
2022-10-27T07:20:34.892Z,12.88
2022-10-27T07:25:28.598Z,9.43
2022-10-27T07:27:56.417Z,15.90
2022-10-27T07:30:24.531Z,13.45
2022-10-27T07:32:51.265Z,9.82
2022-10-27T07:35:17.926Z,14.98
2022-10-27T07:37:45.138Z,17.63
2022-10-27T07:40:12.691Z,15.43
2022-10-27T07:47:36.748Z,15.60
2022-10-27T07:54:57.674Z,23.73
2022-10-27T07:57:24.427Z,18.77
2022-10-27T07:59:51.456Z,20.50
2022-10-27T08:02:18.336Z,21.63
2022-10-27T08:07:10.607Z,19.08
2022-10-27T08:09:37.245Z,13.05
2022-10-27T08:14:30.978Z,15.68
2022-10-27T08:17:00.085Z,8.60
2022-10-27T08:19:29.394Z,14.73
2022-10-27T08:21:55.972Z,8.27
2022-10-27T08:24:22.860Z,11.32
2022-10-27T08:26:49.470Z,10.15
2022-10-27T08:29:16.117Z,13.20
2022-10-27T08:31:42.743Z,13.80
2022-10-27T08:34:09.628Z,9.40
2022-10-27T08:36:39.224Z,14.20
2022-10-27T08:39:06.364Z,15.65
2022-10-27T08:41:39.219Z,17.17
2022-10-27T08:44:10.537Z,12.63
2022-10-27T08:46:39.390Z,15.57
2022-10-27T08:49:10.219Z,14.25
2022-10-27T08:51:36.861Z,14.55
2022-10-27T08:54:06.007Z,14.07
2022-10-27T08:56:41.229Z,14.57
2022-10-27T09:01:41.045Z,16.85
2022-10-27T09:04:12.987Z,21.15
2022-10-27T09:06:55.802Z,18.98
2022-10-27T09:09:27.684Z,14.65
2022-10-27T09:17:25.918Z,14.85
2022-10-27T09:19:54.996Z,11.55
2022-10-27T09:22:22.312Z,9.95
2022-10-27T09:24:56.069Z,11.60
2022-10-27T09:27:22.770Z,10.27
2022-10-27T09:29:50.670Z,15.15
2022-10-27T09:32:29.549Z,11.55
2022-10-27T09:35:01.664Z,8.75
2022-10-27T09:37:29.406Z,14.45
2022-10-27T09:39:58.099Z,21.60
2022-10-27T09:42:25.218Z,13.55
2022-10-27T09:44:54.513Z,15.48
2022-10-27T09:47:22.594Z,14.23
2022-10-27T09:49:49.955Z,19.95
2022-10-27T09:52:20.286Z,20.15
2022-10-27T09:54:55.468Z,13.30
2022-10-27T09:57:26.620Z,11.40
2022-10-27T09:59:59.318Z,15.43
2022-10-27T10:02:37.140Z,17.80
2022-10-27T10:05:24.369Z,22.67
2022-10-27T10:10:27.162Z,12.80
2022-10-27T10:15:28.260Z,12.57
2022-10-27T10:17:56.663Z,10.65
2022-10-27T10:20:32.485Z,15.80
2022-10-27T10:23:00.216Z,12.38
2022-10-27T10:25:28.623Z,13.60
2022-10-27T10:33:06.466Z,17.80
2022-10-27T10:35:56.273Z,12.55
2022-10-27T10:38:35.926Z,11.73
2022-10-27T10:41:13.284Z,21.13
2022-10-27T10:48:47.569Z,14.23
2022-10-27T10:51:23.369Z,12.23
2022-10-27T10:53:51.190Z,13.80
2022-10-27T10:56:25.494Z,11.77
2022-10-27T10:59:10.462Z,13.57
2022-10-27T11:01:42.026Z,11.20
2022-10-27T11:04:18.322Z,15.73
2022-10-27T11:19:06.374Z,14.50
2022-10-27T11:21:36.118Z,16.30
2022-10-27T11:24:07.164Z,12.77
2022-10-27T11:36:55.173Z,18.52
2022-10-27T11:39:26.492Z,16.40
2022-10-27T11:44:55.955Z,18.88
2022-10-27T11:52:37.640Z,14.02
2022-10-27T11:55:06.047Z,11.05
2022-10-27T11:57:51.301Z,12.13
2022-10-27T12:13:15.886Z,9.88
2022-10-27T12:21:06.608Z,19.33
2022-10-27T12:23:37.066Z,14.25
2022-10-27T12:33:38.162Z,13.88
2022-10-27T12:36:11.000Z,14.38
2022-10-27T12:38:37.531Z,15.15
2022-10-27T12:43:37.678Z,12.98
2022-10-27T12:46:05.145Z,13.75
2022-10-27T12:48:43.740Z,15.75
2022-10-27T12:54:44.144Z,11.60
2022-10-27T12:57:16.658Z,17.35
2022-10-27T12:59:52.210Z,14.05
2022-10-27T13:02:19.802Z,13.55
2022-10-27T13:10:17.302Z,9.48
2022-10-27T13:12:53.021Z,14.68
2022-10-27T13:15:25.842Z,17.10
2022-10-27T13:18:11.272Z,14.00
2022-10-27T13:20:40.603Z,10.45
2022-10-27T13:23:17.768Z,12.38
2022-10-27T13:25:48.307Z,15.25
2022-10-27T13:28:20.892Z,12.30
2022-10-27T13:30:57.782Z,13.90
2022-10-27T13:33:37.163Z,12.70
2022-10-27T13:38:45.833Z,14.98
2022-10-27T13:41:32.490Z,16.90
2022-10-27T13:46:44.592Z,15.70
2022-10-27T13:49:31.184Z,12.95
2022-10-27T13:52:20.032Z,9.50
2022-10-27T13:55:04.707Z,16.33
2022-10-27T14:00:07.768Z,16.48
2022-10-27T14:03:02.755Z,14.63
2022-10-27T14:05:35.400Z,9.80
2022-10-27T14:08:02.158Z,13.95
2022-10-27T14:10:28.989Z,17.45
2022-10-27T14:12:55.791Z,10.45
2022-10-27T14:15:34.351Z,13.55
2022-10-27T14:20:36.847Z,12.50
2022-10-27T14:23:06.724Z,19.45
2022-10-27T14:25:34.259Z,16.10
2022-10-27T14:36:08.648Z,15.88
2022-10-27T14:38:35.929Z,14.55
2022-10-27T14:41:13.192Z,11.23
2022-10-27T14:46:07.043Z,16.92
2022-10-27T14:48:36.431Z,12.52
2022-10-27T14:51:10.752Z,14.75
2022-10-27T14:53:38.705Z,14.15
2022-10-27T14:56:09.422Z,12.75
2022-10-27T15:03:32.834Z,11.45
2022-10-27T15:06:00.222Z,7.97
2022-10-27T15:08:33.062Z,10.38
2022-10-27T15:13:35.910Z,11.00
2022-10-27T15:16:11.764Z,10.13
2022-10-27T15:18:45.897Z,12.52
2022-10-27T15:23:47.056Z,9.85
2022-10-27T15:26:15.648Z,14.55
2022-10-27T15:28:43.155Z,11.82
2022-10-27T15:31:11.619Z,15.35
2022-10-27T15:33:41.439Z,13.32
2022-10-27T15:38:36.673Z,12.90
2022-10-27T15:41:27.791Z,12.75
2022-10-27T15:46:35.247Z,21.33
2022-10-27T15:49:05.572Z,12.07
2022-10-27T15:51:43.023Z,12.73
2022-10-27T15:54:28.583Z,14.30
2022-10-27T15:56:56.347Z,16.13
2022-10-27T15:59:25.000Z,14.05
2022-10-27T16:01:53.199Z,14.38
2022-10-27T16:04:24.717Z,15.45
2022-10-27T16:21:54.046Z,11.20
2022-10-27T16:24:22.515Z,11.27
2022-10-27T16:26:49.975Z,11.52
2022-10-27T16:31:44.708Z,10.68
2022-10-27T16:39:13.116Z,10.38
2022-10-27T16:41:40.057Z,11.38
2022-10-27T16:44:09.340Z,12.73
2022-10-27T16:46:36.498Z,11.90
2022-10-27T16:49:03.426Z,9.75
2022-10-27T16:51:30.563Z,11.48
2022-10-27T16:57:00.795Z,17.13
2022-10-27T16:59:34.966Z,11.57
2022-10-27T17:14:22.170Z,12.60
2022-10-27T17:19:15.687Z,17.90
2022-10-27T17:21:45.144Z,11.43
2022-10-27T17:24:16.503Z,12.30
2022-10-27T17:26:43.346Z,16.40
2022-10-27T17:29:11.148Z,16.55
2022-10-27T17:31:38.195Z,10.80
2022-10-27T17:43:49.458Z,15.57
2022-10-27T17:50:28.377Z,18.77
2022-10-27T17:52:55.803Z,14.38
2022-10-27T18:09:58.904Z,17.17
2022-10-27T18:12:35.602Z,14.18
2022-10-27T18:19:55.633Z,16.85
2022-10-27T18:22:28.251Z,14.18
2022-10-27T18:24:58.452Z,13.45
2022-10-27T18:27:25.908Z,15.70
2022-10-27T18:29:52.858Z,14.13
2022-10-27T18:32:23.509Z,11.75
2022-10-27T18:34:51.396Z,12.60
2022-10-27T18:37:20.635Z,13.88
2022-10-27T18:39:49.806Z,15.98
2022-10-27T18:42:19.424Z,13.88
2022-10-27T18:44:48.196Z,12.55
2022-10-27T18:47:17.082Z,14.02
2022-10-27T18:49:49.068Z,11.35
2022-10-27T18:54:41.672Z,10.63
2022-10-27T18:57:08.805Z,15.68
2022-10-27T19:02:02.855Z,15.93
2022-10-27T19:04:30.006Z,14.70
2022-10-27T19:09:26.357Z,16.10
2022-10-27T19:11:53.747Z,11.57
2022-10-27T19:14:20.709Z,19.52
2022-10-27T19:21:39.901Z,11.52
2022-10-27T19:24:11.219Z,15.48
2022-10-27T19:26:39.511Z,21.27
2022-10-27T19:29:08.771Z,14.45
2022-10-27T19:39:09.421Z,15.05
2022-10-27T19:41:38.283Z,16.95
2022-10-27T19:46:32.514Z,8.02
2022-10-27T19:49:01.854Z,14.02
2022-10-27T19:58:58.245Z,12.48
2022-10-27T20:01:50.387Z,13.23
2022-10-27T20:04:19.416Z,13.35
2022-10-27T20:06:48.130Z,14.10
2022-10-27T20:09:19.171Z,16.00
2022-10-27T20:11:46.344Z,11.23
2022-10-27T20:14:15.440Z,13.45
2022-10-27T20:19:21.063Z,13.63
2022-10-27T20:21:49.595Z,12.63
2022-10-27T20:24:17.685Z,14.00
2022-10-27T20:26:47.364Z,12.40
2022-10-27T20:29:16.122Z,12.10
2022-10-27T20:37:15.020Z,14.23
2022-10-27T20:39:43.235Z,16.42
2022-10-27T20:42:11.548Z,19.70
2022-10-27T20:49:33.223Z,11.82
2022-10-27T20:54:27.670Z,13.32
2022-10-27T20:56:54.794Z,15.85
2022-10-27T20:59:23.988Z,17.30
2022-10-27T21:01:54.259Z,15.50
2022-10-27T21:14:08.183Z,11.75
2022-10-27T21:16:35.016Z,12.80
2022-10-27T21:23:54.598Z,13.32
2022-10-27T21:36:14.759Z,16.23
2022-10-27T21:38:44.388Z,17.42
2022-10-27T21:41:15.002Z,16.33
2022-10-27T21:46:09.493Z,13.80
2022-10-27T21:48:36.496Z,17.75
2022-10-27T21:56:03.546Z,12.50
2022-10-27T21:58:30.852Z,15.98
2022-10-27T22:01:11.237Z,19.90
2022-10-27T22:03:38.259Z,13.73
2022-10-27T22:06:05.587Z,19.55
2022-10-27T22:11:08.378Z,21.23
2022-10-27T22:13:35.220Z,13.10
2022-10-27T22:16:09.204Z,17.27
2022-10-27T22:18:36.579Z,14.90
2022-10-27T22:21:03.267Z,18.50
2022-10-27T22:23:29.965Z,18.00
2022-10-27T22:28:31.920Z,14.82
2022-10-27T22:30:58.879Z,18.60
2022-10-27T22:33:25.726Z,17.45
2022-10-27T22:35:52.381Z,14.23
2022-10-27T22:38:18.972Z,21.98
2022-10-27T22:40:45.616Z,16.77
2022-10-27T22:43:12.348Z,13.85
2022-10-27T22:45:38.887Z,20.63
2022-10-27T22:48:05.615Z,23.88
2022-10-27T22:50:32.254Z,17.77
2022-10-27T22:52:58.831Z,18.20
2022-10-27T22:57:51.476Z,14.40
2022-10-27T23:00:18.578Z,19.35
2022-10-27T23:02:45.506Z,17.45
2022-10-27T23:05:12.471Z,17.95
2022-10-27T23:07:39.382Z,17.10
2022-10-27T23:14:57.607Z,21.05
2022-10-27T23:17:24.518Z,16.05
2022-10-27T23:19:51.412Z,18.42
2022-10-27T23:22:18.286Z,16.33
2022-10-27T23:24:45.172Z,13.85
2022-10-27T23:27:13.262Z,18.52
2022-10-27T23:29:40.237Z,21.80
2022-10-27T23:34:32.709Z,21.77
2022-10-27T23:36:59.572Z,19.08
2022-10-27T23:44:20.376Z,21.33
2022-10-27T23:49:12.943Z,17.90
2022-10-27T23:51:39.828Z,12.68
